Create Custom Reports and Graphics: Custom Report

Kelseyville-South

Current Conditions

5/18/21 4:00 PM (-07:00)
Updated Every 15 Minutes
Temp 75.3 °F   2.5
RH 22 %   4
Dew Pt 33.9 °F   6.6
Wind Spd 11.2 mph   1.6
Wind Dir W | 272 °
Wind Gust 17.2 mph   0.7
Solar Rad 854 W/m2   17
Leaf Wet 0.0 mins
BatVolt 13.5 V

Today & Yesterday

Kelseyville-South

5/18/21 4:00 PM (-07:00)
Updated Every 15 Minutes
Daily Max Temp 76.9 °F   2.7
Time of Max Temp 1449
Daily Min Temp 43.2 °F   0.8
Time of Min Temp 0545
Daily Max Wind 19.8 mph   3.7
Time of Max Wind 1520
Max Wind Dir W | 262 °
Daily Rain 0.00 In
Daily ETo 0.175 in   0.007
Daily Leaf Wet Hrs 0.0 hrs
Yesterday's Max Temp 79.6 °F
Yesterday’s Min Temp 44.1 °F
Yesterday's Max Wind 23.5 mph
Yesterday's Rainfall 0.00 In
Yesterday's ETo 0.26 In
Leaf Wet Hrs Yest 0.0 Hours

Last 48 Hours

Kelseyville-South

Hourly Data | America/Los_Angeles
as of 5/18/21 4:05 PM PDT
Date & Time Temp (°F) RH (%) Dew Pt (°F) Wet Bulb (°F) Wind Dir (°) Wind Spd (mph) Wind Gust (mph) Wind Gst Dir (°) Solar Rad (W/m2) Leaf Wet (mins) Latest Rain (In) Daily Rain (In) Daily Min Temp (°F) Daily Max Temp (°F) Daily ETo (in) Daily Leaf Wet Hrs (hrs)
5/18/21 - 1600 75.5 21 32.3 52.3 W | 265 11.3 19.8 W | 262 907 0.0 0.00 0.00 43.2 76.9 0.204 0.0
5/18/21 - 1500 75.9 13 22.0 49.8 W | 280 10.0 18.5 WNW | 288 1,019 0.0 0.00 0.00 43.2 76.9 0.175 0.0
5/18/21 - 1400 75.3 16 25.4 50.3 W | 278 9.0 19.2 WNW | 289 1,061 0.0 0.00 0.00 43.2 76.1 0.143 0.0
5/18/21 - 1300 73.9 17 26.6 50.2 NW | 313 7.9 15.8 W | 272 1,055 0.0 0.00 0.00 43.2 75.1 0.111 0.0
5/18/21 - 1200 71.7 28 36.5 52.6 WNW | 300 7.2 16.2 WNW | 283 983 0.0 0.00 0.00 43.2 72.7 0.081 0.0
5/18/21 - 1100 69.8 34 39.9 53.2 NW | 311 5.9 13.8 WNW | 289 852 0.0 0.00 0.00 43.2 71.5 0.054 0.0
5/18/21 - 1000 66.0 39 40.1 52.0 N | 5 2.5 7.4 NE | 49 677 0.0 0.00 0.00 43.2 68.1 0.031 0.0
5/18/21 - 0900 62.4 43 39.5 50.5 NE | 51 2.7 7.1 NNE | 31 473 0.0 0.00 0.00 43.2 64.0 0.015 0.0
5/18/21 - 0800 55.7 62 42.5 49.2 SSE | 160 0.4 3.4 E | 79 261 0.0 0.00 0.00 43.2 61.0 0.004 0.0
5/18/21 - 0700 45.2 85 41.0 43.5 S | 175 0.3 2.4 SE | 130 67 0.0 0.00 0.00 43.2 52.9 0.000 0.0
5/18/21 - 0600 43.7 87 40.0 42.2 SE | 140 1.4 3.1 SE | 127 1 0.0 0.00 0.00 43.2 52.9 0.000 0.0
5/18/21 - 0500 44.8 84 40.3 42.9 SSE | 150 1.2 4.1 SSW | 206 0 0.0 0.00 0.00 44.2 52.9 0.000 0.0
5/18/21 - 0400 47.1 79 41.1 44.6 SE | 131 1.3 4.1 SSE | 147 0 0.0 0.00 0.00 46.0 52.9 0.000 0.0
5/18/21 - 0300 50.2 71 41.4 46.2 SSE | 150 2.1 4.8 SE | 132 0 0.0 0.00 0.00 48.5 52.9 0.000 0.0
5/18/21 - 0200 51.4 69 41.5 46.8 SE | 145 2.9 6.4 SE | 142 0 0.0 0.00 0.00 49.7 52.9 0.000 0.0
5/18/21 - 0100 50.9 70 41.4 46.5 SE | 127 3.5 5.1 SE | 126 0 0.0 0.00 0.00 44.1 79.6 0.263 0.0
5/18/21 - 0000 53.9 62 41.3 47.9 SE | 138 3.1 4.8 SSE | 151 0 0.0 0.00 0.00 44.1 79.6 0.263 0.0
5/17/21 - 2300 55.6 57 40.6 48.3 S | 181 3.9 7.8 SSW | 206 0 0.0 0.00 0.00 44.1 79.6 0.263 0.0
5/17/21 - 2200 59.0 50 40.2 49.4 SSW | 204 4.4 8.4 SW | 215 0 0.0 0.00 0.00 44.1 79.6 0.262 0.0
5/17/21 - 2100 63.4 44 41.1 51.5 S | 186 2.3 10.8 WNW | 300 4 0.0 0.00 0.00 44.1 79.6 0.261 0.0
5/17/21 - 2000 69.4 37 42.0 54.0 WNW | 293 4.9 16.2 W | 273 117 0.0 0.00 0.00 44.1 79.6 0.261 0.0
5/17/21 - 1900 73.9 27 37.0 53.5 WNW | 289 10.7 19.5 W | 266 323 0.0 0.00 0.00 44.1 79.6 0.257 0.0
5/17/21 - 1800 77.6 18 30.3 52.3 WNW | 290 10.4 18.8 W | 279 529 0.0 0.00 0.00 44.1 79.6 0.243 0.0
5/17/21 - 1700 78.2 19 32.0 53.1 W | 281 10.4 18.5 W | 262 732 0.0 0.00 0.00 44.1 79.6 0.222 0.0
5/17/21 - 1600 78.0 29 42.7 56.8 W | 261 12.5 23.5 W | 273 890 0.0 0.00 0.00 44.1 79.6 0.197 0.0
5/17/21 - 1500 78.7 28 42.5 56.8 W | 263 11.3 18.8 W | 270 1,005 0.0 0.00 0.00 44.1 79.5 0.168 0.0
5/17/21 - 1400 77.1 32 44.7 57.4 WSW | 244 9.0 15.8 SW | 218 1,037 0.0 0.00 0.00 44.1 78.6 0.136 0.0
5/17/21 - 1300 73.8 38 47.0 57.6 SW | 229 7.2 13.8 SW | 231 1,050 0.0 0.00 0.00 44.1 75.8 0.106 0.0
5/17/21 - 1200 72.5 42 48.2 57.9 WNW | 288 3.8 10.8 SW | 221 981 0.0 0.00 0.00 44.1 74.0 0.077 0.0
5/17/21 - 1100 69.1 47 47.9 56.8 NNE | 20 2.3 6.1 N | 9 852 0.0 0.00 0.00 44.1 71.0 0.051 0.0
5/17/21 - 1000 65.1 57 49.5 56.4 NE | 43 1.6 6.1 NNE | 27 676 0.0 0.00 0.00 44.1 67.0 0.030 0.0
5/17/21 - 0900 60.7 66 49.3 54.8 NNE | 22 1.5 5.4 NE | 49 472 0.0 0.00 0.00 44.1 62.6 0.014 0.0
5/17/21 - 0800 54.7 77 47.4 51.4 WSW | 253 1.5 4.4 WSW | 241 257 0.0 0.00 0.00 44.1 58.2 0.004 0.0
5/17/21 - 0700 45.9 92 43.6 45.2 SE | 146 0.8 3.4 ESE | 108 66 0.0 0.00 0.00 44.1 55.8 0.000 0.0
5/17/21 - 0600 45.1 92 43.0 44.5 SE | 131 1.2 3.4 SE | 124 1 0.0 0.00 0.00 44.4 55.8 0.000 0.0
5/17/21 - 0500 47.8 88 44.5 46.6 SE | 130 2.2 4.4 SE | 124 0 0.0 0.00 0.00 46.3 55.8 0.000 0.0
5/17/21 - 0400 49.8 85 45.6 48.1 SSE | 147 2.7 4.8 S | 175 0 0.0 0.00 0.00 48.8 55.8 0.000 0.0
5/17/21 - 0300 52.7 81 46.9 50.2 S | 171 2.9 7.1 SSW | 209 0 0.0 0.00 0.00 51.5 55.8 0.000 0.0
5/17/21 - 0200 54.7 76 47.4 51.4 S | 180 4.1 8.4 SSW | 194 0 0.0 0.00 0.00 54.0 55.8 0.000 0.0
5/17/21 - 0100 55.6 78 48.7 52.5 SSE | 159 2.9 5.1 SSE | 155 0 0.0 0.00 0.00 47.3 82.1 0.256 0.0
5/17/21 - 0000 57.6 74 49.3 53.6 SSW | 201 4.8 8.1 SSW | 207 0 0.0 0.00 0.00 47.3 82.1 0.256 0.0
5/16/21 - 2300 60.1 69 50.0 55.0 SW | 223 6.2 10.8 SW | 233 0 0.0 0.00 0.00 47.3 82.1 0.256 0.0
5/16/21 - 2200 62.8 65 50.7 56.4 SW | 214 7.4 12.1 SW | 219 0 0.0 0.00 0.00 47.3 82.1 0.255 0.0
5/16/21 - 2100 65.3 60 51.2 57.5 SW | 224 6.3 11.5 WSW | 241 5 0.0 0.00 0.00 47.3 82.1 0.254 0.0
5/16/21 - 2000 70.6 50 50.8 58.9 WSW | 242 8.5 14.2 SW | 234 108 0.0 0.00 0.00 47.3 82.1 0.253 0.0
5/16/21 - 1900 75.2 42 50.6 59.9 WSW | 242 9.8 16.8 WSW | 255 305 0.0 0.00 0.00 47.3 82.1 0.248 0.0
5/16/21 - 1800 78.1 38 50.3 60.4 WSW | 248 8.0 15.2 W | 260 519 0.0 0.00 0.00 47.3 82.1 0.236 0.0
5/16/21 - 1700 78.0 39 51.0 60.8 SW | 236 10.0 15.8 WSW | 258 712 0.0 0.00 0.00 47.3 82.1 0.218 0.0
5/16/21 - 1600 78.1 35 48.4 59.4 WSW | 248 11.4 18.2 WSW | 251 872 0.0 0.00 0.00 47.3 82.1 0.196 0.0
Max 78.7 92 51.2 60.8 - 12.5 23.5 - 1,061 0.0 0.00 0.00 54.0 82.1 0.263 0.0
Avg 63.2 53 42.6 52.0 - 5.3 10.6 - 385 0.0 0.00 - - - - -
Min 43.7 13 22.0 42.2 - 0.3 2.4 - 0 0.0 0.00 0.00 43.2 52.9 0.000 0.0
Total - - - - - - - - - - 0.00 - - - - -

Last 30 Days

Kelseyville-South

Daily Data | America/Los_Angeles
as of 5/18/21 4:05 PM PDT
Date Daily Max Temp (°F) Time of Max Temp Daily Min Temp (°F) Time of Min Temp Daily Rain (In) Monthly Rain (In) Seasonal Rainfall (In) Wind Spd (mph) Daily Max Wind (mph) Time of Max Wind Max Wind Dir (°) Daily ETo (in) 7 Day ETo (in) Daily Solar Rad (Cal/cm2) Dew Pt (°F) Max RH (%) Min RH (%) Daily Leaf Wet Hrs (hrs) Hrs 70-85F (hrs) Hrs > 95F (hrs) Powdery Mildew Stress (pts) GDDs (DL) GDDs (Mx/Mn) Seas GDDs (DL) Seas GDDs (Smpl) Hrs <= 32F (hrs) Hrs <= 28F (hrs) Chilling <=45F (hrs) Chill Hrs 32-45F (hrs) Utah Chilling (Units) Chill Portions Degree Hrs (hrs) Max 1 Min Rain (In) Max 1 Min Rain Time Max 15 Min Rain (In) Max 15 Min Precip Time Max 60 Min Rain (In) Max 60 Min Rain Time Bat Volt Min Day (V)
5/17/21 79.6 1509 44.1 0611 0.00 0.00 8.95 4.9 23.5 1530 W | 273 0.263 1.84 773 43.2 94 15 0.0 8.66 0.00 100 13.3 11.8 491 362 0.0 0.0 1.0 1.0 -7.0 - 98.3 - - - - - - 12.7
5/16/21 82.1 1239 47.3 0552 0.00 0.00 8.95 4.8 18.5 1315 SW | 234 0.256 1.83 755 50.3 96 25 0.0 9.87 0.00 90 15.4 14.7 478 350 0.0 0.0 0.0 0.0 -11.5 - 121.3 - - - - - - 12.7
5/15/21 81.8 1425 44.2 0615 0.00 0.00 8.95 2.9 17.5 1458 SW | 217 0.190 1.82 587 48.8 93 21 0.0 5.64 0.00 70 13.0 13.0 463 335 0.0 0.0 0.7 0.7 -6.5 - 83.5 - - - - - - 12.7
5/14/21 85.1 1329 45.5 0547 0.00 0.00 8.95 5.2 21.5 1405 W | 272 0.282 1.88 761 42.8 86 14 0.0 9.93 0.00 80 15.4 15.3 450 322 0.0 0.0 0.0 0.0 -7.5 - 145.6 - - - - - - 12.7
5/13/21 88.5 1345 44.5 0605 0.00 0.00 8.95 3.5 17.8 1524 WSW | 250 0.284 1.83 771 41.0 83 7 0.0 3.42 0.00 60 18.6 16.5 434 307 0.0 0.0 0.7 0.7 -9.5 - 203.0 - - - - - - 12.7
5/12/21 87.6 1415 43.7 0621 0.00 0.00 8.95 3.5 15.8 1437 SW | 218 0.286 1.80 768 36.3 81 6 0.0 3.48 0.00 70 18.6 15.6 416 291 0.0 0.0 1.1 1.1 -9.5 - 204.6 - - - - - - 12.7
5/11/21 88.1 1508 42.8 0552 0.00 0.00 8.95 3.0 20.9 1430 SSW | 208 0.275 1.78 765 34.4 83 9 0.0 3.88 0.00 80 18.0 15.4 397 275 0.0 0.0 2.4 2.4 -8.5 - 194.7 - - - - - - 12.7
5/10/21 86.9 1616 40.8 0629 0.00 0.00 8.95 2.6 17.2 1057 ENE | 63 0.258 1.76 780 32.1 94 4 0.0 5.63 0.00 90 16.5 13.8 379 260 0.0 0.0 4.1 4.1 -6.5 - 170.0 - - - - - - 12.7
5/9/21 79.8 1352 42.0 0615 0.00 0.00 8.95 3.8 17.8 1600 NNW | 330 0.245 1.74 738 40.3 85 20 0.0 8.75 0.00 100 12.8 10.9 362 246 0.0 0.0 3.1 3.1 -5.0 - 100.1 - - - - - - 12.7
5/8/21 83.6 1541 37.1 0553 0.00 0.00 8.95 3.4 19.2 1529 W | 279 0.255 1.73 752 34.6 95 9 0.0 9.15 0.00 100 14.3 10.4 350 235 0.0 0.0 6.1 6.1 -5.0 - 127.4 - - - - - - 12.7
5/7/21 72.9 1515 39.9 0607 0.00 0.00 8.95 4.0 19.8 1720 NW | 309 0.228 1.71 757 39.2 97 25 2.3 3.74 0.00 90 8.4 6.4 335 224 0.0 0.0 4.4 4.4 1.5 - 35.5 - - - - - - 12.7
5/6/21 74.1 1508 44.6 0558 0.00 0.00 8.95 6.2 20.9 1909 WNW | 283 0.251 1.71 741 38.1 92 21 0.0 7.15 0.00 100 11.3 9.3 327 218 0.0 0.0 0.1 0.1 -6.5 - 60.0 - - - - - - 12.8
5/5/21 86.8 1427 44.8 0609 0.00 0.00 8.95 4.0 18.2 1503 WSW | 245 0.275 1.70 742 43.5 96 11 0.0 3.57 0.00 90 17.5 15.8 316 209 0.0 0.0 0.3 0.3 -9.0 - 178.6 - - - - - - 12.7
5/4/21 82.9 1539 45.1 0546 0.00 0.00 8.95 3.3 14.2 1405 W | 261 0.246 1.66 735 44.2 88 19 0.0 9.73 0.00 100 15.0 14.0 298 193 0.0 0.0 0.0 0.0 -7.5 - 133.7 - - - - - - 12.7
5/3/21 82.1 1525 40.7 0609 0.00 0.00 8.95 3.3 19.2 1708 W | 281 0.243 1.63 731 41.9 97 14 0.0 8.96 0.00 100 14.1 11.4 283 179 0.0 0.0 4.1 4.1 -5.0 - 116.5 - - - - - - 12.7
5/2/21 75.4 1504 42.7 0450 0.00 0.00 8.95 4.4 17.2 1609 WNW | 302 0.232 1.54 731 41.4 88 23 0.0 7.20 0.00 100 11.0 9.0 269 168 0.0 0.0 2.6 2.6 -4.0 - 65.1 - - - - - - 12.7
5/1/21 74.8 1510 45.8 0603 0.00 0.00 8.95 6.8 22.5 1340 W | 261 0.239 1.41 730 45.1 86 31 0.0 6.35 0.00 100 11.2 10.3 258 158 0.0 0.0 0.0 0.0 -6.0 - 59.4 - - - - - - 12.7
4/30/21 82.3 1426 40.1 0649 0.00 0.10 8.95 3.6 16.5 1659 SW | 236 0.224 1.28 636 40.7 92 14 0.0 8.75 0.00 80 13.6 11.2 247 148 0.0 0.0 4.9 4.9 -4.5 - 114.8 - - - - - - 12.7
4/29/21 86.5 1553 38.5 0605 0.00 0.10 8.95 3.1 18.8 1552 NW | 308 0.247 1.27 707 37.6 90 8 0.0 4.17 0.00 60 15.0 12.5 233 137 0.0 0.0 6.0 6.0 -4.0 104 148.5 - - - - - - 12.7
4/28/21 82.5 1700 36.2 0636 0.00 0.10 8.95 2.4 16.2 1720 WNW | 283 0.231 1.25 726 36.3 96 12 0.0 8.90 0.00 70 12.6 9.4 218 124 0.0 0.0 6.4 6.4 -2.5 104 112.9 - - - - - - 12.7
4/27/21 73.5 1708 34.0 0607 0.00 0.10 8.95 2.8 19.8 1752 WNW | 286 0.211 1.24 726 36.6 100 17 8.0 3.78 0.00 50 7.9 3.8 206 115 0.0 0.0 8.2 8.2 0.0 104 35.6 - - - - - - 12.7
4/26/21 61.5 1639 33.1 0553 0.01 0.10 8.95 3.5 16.8 1831 NW | 324 0.152 1.22 614 37.0 100 33 9.4 0.00 0.00 60 2.5 0.0 198 111 0.0 0.0 12.3 12.3 11.0 103 0.0 - - - - - - 12.6
4/25/21 57.0 1518 36.8 0044 0.09 0.09 8.94 5.1 21.5 1259 W | 261 0.104 1.30 440 40.1 96 38 5.7 0.00 0.00 70 1.1 0.0 195 111 0.0 0.0 11.0 11.0 18.0 103 0.0 0.01 1200 0.04 1118 0.07 1203 12.7
4/24/21 58.7 1517 44.7 0059 0.00 0.00 8.85 5.9 16.5 0258 SW | 226 0.107 1.44 384 40.6 84 46 1.1 0.00 0.00 80 1.9 1.7 194 111 0.0 0.0 0.4 0.4 13.0 103 0.0 - - - - - - 12.7
4/23/21 74.4 1417 39.5 0545 0.00 0.00 8.85 4.9 21.2 1607 SW | 224 0.218 1.58 638 37.7 90 14 0.0 5.00 0.00 90 9.3 6.9 192 110 0.0 0.0 4.6 4.6 0.0 102 44.3 - - - - - - 12.7
4/22/21 75.3 1227 38.5 0604 0.00 0.00 8.85 4.5 18.2 1654 WSW | 245 0.224 1.57 705 42.3 94 26 0.0 6.59 0.00 100 10.2 6.9 183 103 0.0 0.0 6.0 6.0 -2.0 102 57.5 - - - - - - 12.7
4/21/21 77.3 1616 38.1 0622 0.00 0.00 8.85 3.0 14.8 1744 SW | 231 0.220 1.55 698 39.8 97 11 0.9 7.96 0.00 90 10.9 7.7 173 96 0.0 0.0 5.8 5.8 -2.0 102 77.2 - - - - - - 12.7
4/20/21 70.6 1610 38.6 0646 0.00 0.00 8.85 4.0 21.9 1618 NNW | 328 0.196 1.52 701 41.2 90 36 0.0 0.18 0.00 70 7.3 4.6 162 88 0.0 0.0 5.3 5.3 2.0 102 15.6 - - - - - - 12.7
4/19/21 80.4 1422 39.4 0646 0.00 0.00 8.85 4.0 18.5 1625 W | 274 0.238 1.53 697 37.2 85 14 0.0 8.37 0.00 80 12.0 9.9 155 84 0.0 0.0 4.2 4.2 -2.5 102 97.6 - - - - - - 12.7
4/18/21 83.4 1558 35.2 0606 0.00 0.00 8.85 3.3 21.2 1635 WSW | 238 0.238 1.50 694 32.1 90 8 0.0 9.11 0.00 60 13.8 9.3 143 74 0.0 0.0 6.8 6.8 -3.5 102 129.7 - - - - - - 12.7
Max 88.5 - 47.3 - 0.09 0.10 - 6.8 23.5 - - 0.286 - 780 50.3 100 46 9.4 9.93 0.00 - 18.6 16.5 - - 0.0 0.0 12.3 12.3 18.0 104 204.6 - - - - - - 12.8
Avg - - - - - 0.02 - 4.0 - - - - - - 39.9 - - - 5.93 0.00 - 12.1 9.9 - - 0.0 0.0 3.8 3.8 -3.0 103 - - - - - - - -
Min 57.0 - 33.1 - 0.00 0.00 - 2.4 14.2 - - 0.104 - 384 32.1 81 4 0.0 0.00 0.00 - 1.1 0.0 - - 0.0 0.0 0.0 0.0 -11.5 102 0.0 - - - - - - 12.6
Total - - - - - - - - - - - - - - - - - - 177.92 0.00 - 362.3 297.6 - - 0.0 0.0 112.6 112.6 -90.0 - - - - - - - - -